createdAt,value
2022-10-08T00:04:13.526Z,56.83
2022-10-08T00:09:18.323Z,51.40
2022-10-08T00:14:24.024Z,68.50
2022-10-08T00:19:27.947Z,52.80
2022-10-08T00:24:33.007Z,44.90
2022-10-08T00:29:36.704Z,48.38
2022-10-08T00:34:41.315Z,45.83
2022-10-08T00:39:46.005Z,56.00
2022-10-08T00:44:55.544Z,78.10
2022-10-08T00:50:02.063Z,65.10
2022-10-08T00:55:10.006Z,81.70
2022-10-08T01:00:15.722Z,65.10
2022-10-08T01:05:24.605Z,56.15
2022-10-08T01:10:35.495Z,53.47
2022-10-08T01:15:45.765Z,59.07
2022-10-08T01:21:01.226Z,68.50
2022-10-08T01:26:26.233Z,82.80
2022-10-08T01:31:35.177Z,82.22
2022-10-08T01:36:43.414Z,112.65
2022-10-08T01:41:52.571Z,99.88
2022-10-08T01:46:59.827Z,78.65
2022-10-08T01:52:08.542Z,94.28
2022-10-08T01:57:12.940Z,48.75
2022-10-08T02:02:21.611Z,40.42
2022-10-08T02:07:27.966Z,50.23
2022-10-08T02:12:31.730Z,40.83
2022-10-08T02:17:45.066Z,48.08
2022-10-08T02:22:54.136Z,38.83
2022-10-08T02:28:07.479Z,41.90
2022-10-08T02:33:17.118Z,41.00
2022-10-08T02:38:24.862Z,47.28
2022-10-08T02:43:32.422Z,51.85
2022-10-08T02:48:42.354Z,42.75
2022-10-08T02:53:48.374Z,38.47
2022-10-08T02:58:52.085Z,36.25
2022-10-08T03:04:01.590Z,31.83
2022-10-08T03:09:08.336Z,36.85
2022-10-08T03:14:15.178Z,57.63
2022-10-08T03:19:20.291Z,49.78
2022-10-08T03:24:23.604Z,47.83
2022-10-08T03:29:26.896Z,39.50
2022-10-08T03:34:31.557Z,50.40
2022-10-08T03:39:34.810Z,61.15
2022-10-08T03:44:38.082Z,53.97
2022-10-08T03:49:42.826Z,54.22
2022-10-08T03:54:46.101Z,51.08
2022-10-08T03:59:49.461Z,55.00
2022-10-08T04:04:54.203Z,50.63
2022-10-08T04:09:57.445Z,51.35
2022-10-08T04:15:00.750Z,72.28
2022-10-08T04:20:05.755Z,82.13
2022-10-08T04:25:09.378Z,76.60
2022-10-08T04:30:13.346Z,91.82
2022-10-08T04:35:18.134Z,80.32
2022-10-08T04:40:21.389Z,73.95
2022-10-08T04:45:24.740Z,76.15
2022-10-08T04:50:29.474Z,65.88
2022-10-08T04:55:32.818Z,59.45
2022-10-08T05:00:37.001Z,70.10
2022-10-08T05:05:42.623Z,67.50
2022-10-08T05:10:50.045Z,58.08
2022-10-08T05:15:53.566Z,56.17
2022-10-08T05:20:58.233Z,70.40
2022-10-08T05:26:02.405Z,87.57
2022-10-08T05:31:05.897Z,71.82
2022-10-08T05:36:17.255Z,59.17
2022-10-08T05:41:24.412Z,58.45
2022-10-08T05:46:29.458Z,54.03
2022-10-08T05:51:34.159Z,63.77
2022-10-08T05:56:37.433Z,58.90
2022-10-08T06:01:40.770Z,62.03
2022-10-08T06:06:46.128Z,52.33
2022-10-08T06:11:50.814Z,59.00
2022-10-08T06:16:54.139Z,59.72
2022-10-08T06:21:58.756Z,50.17
2022-10-08T06:27:01.992Z,46.00
2022-10-08T06:32:05.268Z,42.97
2022-10-08T06:37:09.935Z,38.53
2022-10-08T06:42:13.211Z,31.70
2022-10-08T06:47:16.445Z,30.10
2022-10-08T06:52:21.073Z,27.07
2022-10-08T06:57:24.402Z,27.23
2022-10-08T07:02:27.690Z,24.35
2022-10-08T07:07:32.329Z,22.38
2022-10-08T07:12:35.568Z,26.67
2022-10-08T07:17:38.813Z,28.58
2022-10-08T07:22:43.441Z,30.80
2022-10-08T07:27:47.313Z,32.35
2022-10-08T07:32:53.828Z,35.95
2022-10-08T07:37:58.702Z,30.90
2022-10-08T07:43:02.206Z,37.15
2022-10-08T07:48:05.589Z,36.17
2022-10-08T07:53:10.239Z,34.58
2022-10-08T07:58:14.598Z,31.80
2022-10-08T08:03:17.881Z,32.20
2022-10-08T08:08:24.891Z,31.43
2022-10-08T08:13:34.302Z,27.73
2022-10-08T08:18:41.840Z,27.30
2022-10-08T08:23:49.193Z,23.48
2022-10-08T08:28:53.754Z,25.45
2022-10-08T08:33:58.688Z,23.55
2022-10-08T08:39:03.552Z,20.42
2022-10-08T08:44:12.639Z,20.40
2022-10-08T08:49:22.620Z,18.90
2022-10-08T08:54:28.540Z,19.07
2022-10-08T08:59:37.733Z,20.42
2022-10-08T09:04:45.665Z,18.25
2022-10-08T09:09:54.012Z,17.73
2022-10-08T09:15:00.241Z,16.55
2022-10-08T09:20:03.952Z,16.48
2022-10-08T09:25:13.858Z,16.85
2022-10-08T09:30:33.379Z,18.10
2022-10-08T09:35:45.180Z,16.98
2022-10-08T09:41:01.315Z,17.08
2022-10-08T09:46:11.893Z,17.60
2022-10-08T09:51:17.754Z,17.67
2022-10-08T09:56:28.153Z,17.15
2022-10-08T10:01:32.529Z,17.33
2022-10-08T10:06:38.770Z,16.75
2022-10-08T10:11:48.170Z,16.97
2022-10-08T10:16:58.734Z,16.85
2022-10-08T10:22:04.888Z,16.97
2022-10-08T10:27:13.836Z,16.20
2022-10-08T10:32:22.729Z,17.53
2022-10-08T10:37:35.441Z,18.50
2022-10-08T10:42:47.565Z,19.98
2022-10-08T10:47:52.159Z,17.45
2022-10-08T10:53:06.067Z,18.45
2022-10-08T10:58:32.046Z,17.63
2022-10-08T11:03:41.030Z,15.43
2022-10-08T11:08:53.705Z,17.35
2022-10-08T11:14:18.232Z,18.03
2022-10-08T11:19:39.154Z,15.70
2022-10-08T11:24:56.601Z,16.77
2022-10-08T11:30:06.222Z,16.83
2022-10-08T11:35:26.790Z,16.15
2022-10-08T11:40:35.901Z,15.27
2022-10-08T11:45:42.744Z,15.48
2022-10-08T11:50:46.078Z,16.03
2022-10-08T11:55:53.660Z,15.15
2022-10-08T12:01:06.549Z,15.43
2022-10-08T12:06:26.717Z,15.77
2022-10-08T12:11:53.878Z,16.42
2022-10-08T12:17:11.690Z,15.50
2022-10-08T12:22:44.531Z,16.92
2022-10-08T12:27:47.908Z,16.85
2022-10-08T12:32:57.408Z,15.73
2022-10-08T12:38:26.982Z,16.25
2022-10-08T12:43:38.039Z,15.27
2022-10-08T12:48:50.489Z,14.80
2022-10-08T12:53:53.847Z,15.32
2022-10-08T12:58:59.660Z,15.17
2022-10-08T13:04:20.467Z,15.13
2022-10-08T13:09:27.795Z,14.52
2022-10-08T13:14:33.267Z,14.70
2022-10-08T13:19:39.675Z,14.80
2022-10-08T13:29:46.651Z,14.48
2022-10-08T13:34:53.335Z,14.38
2022-10-08T13:39:58.600Z,14.13
2022-10-08T13:45:02.797Z,13.43
2022-10-08T13:50:08.657Z,14.70
2022-10-08T13:55:22.558Z,11.98
2022-10-08T14:00:25.836Z,12.40
2022-10-08T14:05:33.717Z,13.73
2022-10-08T14:10:37.089Z,13.97
2022-10-08T14:15:40.894Z,14.05
2022-10-08T14:20:45.640Z,13.98
2022-10-08T14:25:48.928Z,13.90
2022-10-08T14:30:52.176Z,16.60
2022-10-08T14:35:56.894Z,16.20
2022-10-08T14:41:01.007Z,16.15
2022-10-08T14:46:04.474Z,8.80
2022-10-08T14:51:09.233Z,5.40
2022-10-08T14:56:13.142Z,5.95
2022-10-08T15:01:16.572Z,5.97
2022-10-08T15:06:21.235Z,6.68
2022-10-08T15:11:24.494Z,6.70
2022-10-08T15:16:27.895Z,6.30
2022-10-08T15:21:32.530Z,3.88
2022-10-08T15:26:36.099Z,5.35
2022-10-08T15:31:39.388Z,5.22
2022-10-08T15:36:44.050Z,3.75
2022-10-08T15:41:49.677Z,5.78
2022-10-08T15:46:59.643Z,5.90
2022-10-08T15:52:06.187Z,3.80
2022-10-08T15:57:11.047Z,4.55
2022-10-08T16:02:17.359Z,6.43
2022-10-08T16:07:22.647Z,4.30
2022-10-08T16:12:25.986Z,4.25
2022-10-08T16:17:29.224Z,3.75
2022-10-08T16:22:33.858Z,5.90
2022-10-08T16:27:37.107Z,2.45
2022-10-08T16:32:40.383Z,3.57
2022-10-08T16:37:44.996Z,3.83
2022-10-08T16:42:48.573Z,5.17
2022-10-08T16:47:52.076Z,5.68
2022-10-08T16:52:56.744Z,5.97
2022-10-08T16:58:00.005Z,33.15
2022-10-08T17:03:03.301Z,46.95
2022-10-08T17:08:07.978Z,28.83
2022-10-08T17:13:11.261Z,20.65
2022-10-08T17:18:14.507Z,16.08
2022-10-08T17:23:19.166Z,9.18
2022-10-08T17:28:22.595Z,6.82
2022-10-08T17:33:33.306Z,8.27
2022-10-08T17:38:41.669Z,8.98
2022-10-08T17:43:47.770Z,6.73
2022-10-08T17:48:51.287Z,7.27
2022-10-08T17:53:57.482Z,6.50
2022-10-08T17:59:01.202Z,5.57
2022-10-08T18:04:06.629Z,6.47
2022-10-08T18:09:13.769Z,7.93
2022-10-08T18:14:17.494Z,8.52
2022-10-08T18:19:20.907Z,10.05
2022-10-08T18:24:27.120Z,8.07
2022-10-08T18:29:30.373Z,8.48
2022-10-08T18:34:33.686Z,8.23
2022-10-08T18:39:38.340Z,7.53
2022-10-08T18:44:41.585Z,7.88
2022-10-08T18:49:44.869Z,8.77
2022-10-08T18:54:49.473Z,8.10
2022-10-08T18:59:52.814Z,10.43
2022-10-08T19:04:58.028Z,8.65
2022-10-08T19:10:02.746Z,8.68
2022-10-08T19:15:06.841Z,10.17
2022-10-08T19:20:10.512Z,24.20
2022-10-08T19:25:15.410Z,20.02
2022-10-08T19:30:23.910Z,7.35
2022-10-08T19:35:28.997Z,7.00
2022-10-08T19:40:35.667Z,6.70
2022-10-08T19:45:38.962Z,5.47
2022-10-08T19:50:42.273Z,5.67
2022-10-08T19:55:46.966Z,6.50
2022-10-08T20:00:59.279Z,5.57
2022-10-08T20:06:03.607Z,6.15
2022-10-08T20:11:11.423Z,4.72
2022-10-08T20:16:16.163Z,4.20
2022-10-08T20:21:20.670Z,7.63
2022-10-08T20:26:26.710Z,6.38
2022-10-08T20:31:31.694Z,4.78
2022-10-08T20:36:36.039Z,7.50
2022-10-08T20:41:40.840Z,5.37
2022-10-08T20:46:44.339Z,5.70
2022-10-08T20:51:47.725Z,7.05
2022-10-08T20:56:52.356Z,6.13
2022-10-08T21:01:55.857Z,7.07
2022-10-08T21:07:00.002Z,6.82
2022-10-08T21:12:04.815Z,5.80
2022-10-08T21:17:08.070Z,5.45
2022-10-08T21:22:11.333Z,5.67
2022-10-08T21:27:15.972Z,6.72
2022-10-08T21:32:19.214Z,6.87
2022-10-08T21:37:22.464Z,29.83
2022-10-08T21:47:30.454Z,6.20
2022-10-08T21:52:33.987Z,12.10
2022-10-08T21:57:39.899Z,15.47
2022-10-08T22:02:43.173Z,14.48
2022-10-08T22:07:46.615Z,11.93
2022-10-08T22:12:51.427Z,11.15
2022-10-08T22:17:54.878Z,11.50
2022-10-08T22:22:58.459Z,8.82
2022-10-08T22:28:03.391Z,8.60
2022-10-08T22:33:06.839Z,10.82
2022-10-08T22:38:10.455Z,8.75
2022-10-08T22:43:15.300Z,5.20
2022-10-08T22:48:18.594Z,4.45
2022-10-08T22:53:21.850Z,6.25
2022-10-08T22:58:26.717Z,6.88
2022-10-08T23:03:30.139Z,6.60
2022-10-08T23:08:34.174Z,5.40
2022-10-08T23:13:39.269Z,4.63
2022-10-08T23:18:45.030Z,8.95
2022-10-08T23:23:49.415Z,8.43
2022-10-08T23:28:56.171Z,6.68
2022-10-08T23:33:59.923Z,5.73
2022-10-08T23:39:03.692Z,6.40
2022-10-08T23:44:09.021Z,6.17
2022-10-08T23:49:12.268Z,5.75
2022-10-08T23:54:15.529Z,5.78
2022-10-08T23:59:20.538Z,5.80
